Victoria — V7LN2 — position and weather

sailwx.info

Track history (hours):
 
Tides and Currents Weather Stations Pressure Air Temp Water Temp Dewpoint Dewpoint Depression Visibility Wind Speed Wind Dir Waves Ship Positions

Victoria

Last reported at 2017-Oct-17 15:16 UTC. Time now 2017-Oct-18 05:36 UTC.
Position N 46°22' E 031°02'.

Length 200 m; draft 6.4 m.

Type: Cargo ship. MMSI: 538006304.

Date/timePositionNaut miles runAvg speedWind from/ knotsBaromVisibWave heightAir tempDewpointWater temp
2017-Oct-17 15:16N 46°22' E 031°02'0 0.0
2017-Oct-17 14:43N 46°22' E 031°02'0 0.0
2017-Oct-17 12:25N 46°22' E 031°02'0 0.0
2017-Oct-17 01:07N 46°22' E 031°02'0 0.0
2017-Oct-17 00:55N 46°22' E 031°02'0 0.0
2017-Oct-17 00:25N 46°22' E 031°02'0 0.0
2017-Oct-16 22:07N 46°22' E 031°02'0 0.0
2017-Oct-16 20:49N 46°22' E 031°02'0 0.0
2017-Oct-16 20:16N 46°22' E 031°02'0 0.0
2017-Oct-16 19:55N 46°22' E 031°02'0 0.0
2017-Oct-16 00:43N 46°22' E 031°02'0 0.0
2017-Oct-15 06:16N 46°22' E 031°02'0 0.0
2017-Oct-15 05:58N 46°22' E 031°02'0 0.0
2017-Oct-15 03:31N 46°22' E 031°02'0 0.0
2017-Oct-15 03:13N 46°22' E 031°02'0 0.2
2017-Oct-15 02:56N 46°22' E 031°02'4 6.7
2017-Oct-15 02:22N 46°23' E 030°57'410.1
2017-Oct-15 02:00N 46°26' E 030°55'612.2
2017-Oct-15 01:29N 46°32' E 030°56'4 7.4
2017-Oct-15 00:57N 46°35' E 031°01'  
2017-Oct-12 20:34N 46°37' E 031°02'0 0.0
2017-Oct-12 19:34N 46°37' E 031°02'0 0.0
2017-Oct-12 19:04N 46°37' E 031°02'0 0.0
2017-Oct-12 18:58N 46°37' E 031°02'5 0.3
2017-Oct-12 02:50N 46°33' E 030°58'2 7.3
2017-Oct-12 02:30N 46°31' E 030°57'3 5.7
2017-Oct-12 01:57N 46°27' E 030°57'3 5.7
2017-Oct-12 01:29N 46°25' E 030°57'5 8.5
2017-Oct-12 00:55N 46°20' E 030°57'33212.0
2017-Oct-10 21:10N 40°59' E 028°60'3 7.8
2017-Oct-10 20:50N 40°57' E 028°59'3 8.2
2017-Oct-10 20:27N 40°54' E 028°57'3 7.3
2017-Oct-10 20:00N 40°52' E 028°54'5 5.3
2017-Oct-10 19:05N 40°48' E 028°50'0 0.7
2017-Oct-10 18:54N 40°48' E 028°50'0 0.1
2017-Oct-10 18:15N 40°48' E 028°50'2 2.4
2017-Oct-10 17:23N 40°49' E 028°52'1 1.8
2017-Oct-10 16:57N 40°49' E 028°52'2 1.2
2017-Oct-10 15:36N 40°50' E 028°54'0 1.9
2017-Oct-10 15:28N 40°50' E 028°54'1 2.3
2017-Oct-10 14:51N 40°49' E 028°52'  
2017-Oct-07 17:41N 35°49' E 014°41'310.5
2017-Oct-07 17:24N 35°50' E 014°37'  
Track history (hours):
 
Tides and Currents Weather Stations Pressure Air Temp Water Temp Dewpoint Dewpoint Depression Visibility Wind Speed Wind Dir Waves Ship Positions

Victoria

Last reported at 2017-Oct-17 15:16 UTC. Time now 2017-Oct-18 05:36 UTC.
Position N 46°22' E 031°02'.

Length 200 m; draft 6.4 m.

Type: Cargo ship. MMSI: 538006304.

Date/timePositionNaut miles runAvg speedWind from/ knotsBaromVisibWave heightAir tempDewpointWater temp
2017-Oct-17 15:16N 46°22' E 031°02'0 0.0
2017-Oct-17 14:43N 46°22' E 031°02'0 0.0
2017-Oct-17 12:25N 46°22' E 031°02'0 0.0
2017-Oct-17 01:07N 46°22' E 031°02'0 0.0
2017-Oct-17 00:55N 46°22' E 031°02'0 0.0
2017-Oct-17 00:25N 46°22' E 031°02'0 0.0
2017-Oct-16 22:07N 46°22' E 031°02'0 0.0
2017-Oct-16 20:49N 46°22' E 031°02'0 0.0
2017-Oct-16 20:16N 46°22' E 031°02'0 0.0
2017-Oct-16 19:55N 46°22' E 031°02'0 0.0
2017-Oct-16 00:43N 46°22' E 031°02'0 0.0
2017-Oct-15 06:16N 46°22' E 031°02'0 0.0
2017-Oct-15 05:58N 46°22' E 031°02'0 0.0
2017-Oct-15 03:31N 46°22' E 031°02'0 0.0
2017-Oct-15 03:13N 46°22' E 031°02'0 0.2
2017-Oct-15 02:56N 46°22' E 031°02'4 6.7
2017-Oct-15 02:22N 46°23' E 030°57'410.1
2017-Oct-15 02:00N 46°26' E 030°55'612.2
2017-Oct-15 01:29N 46°32' E 030°56'4 7.4
2017-Oct-15 00:57N 46°35' E 031°01'  
2017-Oct-12 20:34N 46°37' E 031°02'0 0.0
2017-Oct-12 19:34N 46°37' E 031°02'0 0.0
2017-Oct-12 19:04N 46°37' E 031°02'0 0.0
2017-Oct-12 18:58N 46°37' E 031°02'5 0.3
2017-Oct-12 02:50N 46°33' E 030°58'2 7.3
2017-Oct-12 02:30N 46°31' E 030°57'3 5.7
2017-Oct-12 01:57N 46°27' E 030°57'3 5.7
2017-Oct-12 01:29N 46°25' E 030°57'5 8.5
2017-Oct-12 00:55N 46°20' E 030°57'33212.0
2017-Oct-10 21:10N 40°59' E 028°60'3 7.8
2017-Oct-10 20:50N 40°57' E 028°59'3 8.2
2017-Oct-10 20:27N 40°54' E 028°57'3 7.3
2017-Oct-10 20:00N 40°52' E 028°54'5 5.3
2017-Oct-10 19:05N 40°48' E 028°50'0 0.7
2017-Oct-10 18:54N 40°48' E 028°50'0 0.1
2017-Oct-10 18:15N 40°48' E 028°50'2 2.4
2017-Oct-10 17:23N 40°49' E 028°52'1 1.8
2017-Oct-10 16:57N 40°49' E 028°52'2 1.2
2017-Oct-10 15:36N 40°50' E 028°54'0 1.9
2017-Oct-10 15:28N 40°50' E 028°54'1 2.3
2017-Oct-10 14:51N 40°49' E 028°52'  
2017-Oct-07 17:41N 35°49' E 014°41'310.5
2017-Oct-07 17:24N 35°50' E 014°37'  

Dump ship's entire track history